Time;durP1;ratioP1;P1;durP2;ratioP2;P2;SDS_P1;SDS_P2;PMS_P1;PMS_P2;Temp;Humidity;BMP_temperature;BMP_pressure;BME280_temperature;BME280_humidity;BME280_pressure;Samples;Min_cycle;Max_cycle;Signal;HPM_P1;HPM_P2
2022/11/13 00:02:16;;;;;;;29.37;18.23;;;5.10;99.90;;;;;;5031256;28;20044;-73
2022/11/13 00:04:42;;;;;;;32.93;19.27;;;5.10;99.90;;;;;;5048742;28;20746;-73
2022/11/13 00:07:07;;;;;;;26.83;18.50;;;5.10;99.90;;;;;;5038202;28;20036;-73
2022/11/13 00:09:33;;;;;;;28.63;18.47;;;5.00;99.90;;;;;;5017438;28;20128;-73
2022/11/13 00:12:01;;;;;;;28.53;19.03;;;5.00;99.90;;;;;;5037480;28;20062;-73
2022/11/13 00:14:27;;;;;;;28.15;19.48;;;5.00;99.90;;;;;;5042136;28;20484;-73
2022/11/13 00:16:53;;;;;;;30.23;19.93;;;5.00;99.90;;;;;;5034722;28;20033;-73
2022/11/13 00:19:19;;;;;;;31.03;19.40;;;5.00;99.90;;;;;;5041561;28;20052;-73
2022/11/13 00:21:44;;;;;;;33.93;19.87;;;5.00;99.90;;;;;;5058890;28;20051;-73
2022/11/13 00:24:10;;;;;;;29.13;18.90;;;5.00;99.90;;;;;;5026110;28;20036;-73
2022/11/13 00:26:36;;;;;;;29.17;19.13;;;5.00;99.90;;;;;;5024583;28;20062;-73
2022/11/13 00:29:02;;;;;;;30.90;19.90;;;5.00;99.90;;;;;;5023272;28;20055;-73
2022/11/13 00:31:29;;;;;;;28.73;18.92;;;5.00;99.90;;;;;;5042306;28;20444;-73
2022/11/13 00:33:56;;;;;;;27.65;18.92;;;5.00;99.90;;;;;;5040990;28;20564;-73
2022/11/13 00:36:26;;;;;;;29.88;18.88;;;5.10;99.90;;;;;;5063647;28;20069;-73
2022/11/13 00:38:52;;;;;;;28.83;17.98;;;5.00;99.90;;;;;;5045988;28;20060;-73
2022/11/13 00:41:18;;;;;;;26.55;17.50;;;5.10;99.90;;;;;;5043750;28;20489;-73
2022/11/13 00:43:44;;;;;;;29.13;18.77;;;5.10;99.90;;;;;;5045724;28;20055;-73
2022/11/13 00:46:10;;;;;;;32.53;18.23;;;5.10;99.90;;;;;;5045057;28;20048;-73
2022/11/13 00:48:36;;;;;;;28.50;18.23;;;5.10;99.90;;;;;;5028090;28;20040;-73
2022/11/13 00:51:03;;;;;;;28.60;18.58;;;5.10;99.90;;;;;;5059988;28;20036;-73
2022/11/13 00:53:29;;;;;;;36.92;19.60;;;5.10;99.90;;;;;;5025820;28;20028;-73
2022/11/13 00:55:55;;;;;;;30.27;17.50;;;5.10;99.90;;;;;;5061970;28;20056;-73
2022/11/13 00:58:20;;;;;;;28.47;18.43;;;5.10;99.90;;;;;;5044947;28;20252;-73
2022/11/13 01:00:47;;;;;;;24.57;17.53;;;5.10;99.90;;;;;;5038606;28;20045;-73
2022/11/13 01:03:14;;;;;;;25.90;17.35;;;5.20;99.90;;;;;;5034663;28;20493;-73
2022/11/13 01:05:42;;;;;;;24.77;17.20;;;5.20;99.90;;;;;;5031913;28;20036;-73
2022/11/13 01:08:09;;;;;;;28.25;18.05;;;5.20;99.90;;;;;;5041971;28;20385;-73
2022/11/13 01:10:49;;;;;;;26.02;17.70;;;5.10;99.90;;;;;;5070312;28;20048;-73
2022/11/13 01:13:15;;;;;;;24.25;16.73;;;5.10;99.90;;;;;;5057424;28;20051;-73
2022/11/13 01:15:44;;;;;;;28.15;17.23;;;5.10;99.90;;;;;;5044843;28;20037;-73
2022/11/13 01:18:10;;;;;;;25.30;17.77;;;5.10;99.90;;;;;;5030757;28;20551;-73
2022/11/13 01:20:36;;;;;;;23.48;17.17;;;5.10;99.90;;;;;;5056426;28;20036;-73
2022/11/13 01:23:02;;;;;;;28.08;16.88;;;5.10;99.90;;;;;;5045483;28;20048;-73
2022/11/13 01:25:29;;;;;;;22.85;17.02;;;5.10;99.90;;;;;;5038076;28;20049;-73
2022/11/13 01:27:55;;;;;;;26.20;16.83;;;5.10;99.90;;;;;;5053094;28;20056;-73
2022/11/13 01:30:21;;;;;;;25.10;17.70;;;5.10;99.90;;;;;;5056136;28;20063;-73
2022/11/13 01:32:47;;;;;;;23.70;17.20;;;5.10;99.90;;;;;;5043196;28;20519;-73
2022/11/13 01:35:13;;;;;;;24.03;16.70;;;5.20;99.90;;;;;;5041226;28;20082;-73
2022/11/13 01:37:38;;;;;;;21.77;16.20;;;5.20;99.90;;;;;;5036497;28;20051;-73
2022/11/13 01:40:04;;;;;;;27.47;16.40;;;5.10;99.90;;;;;;5044076;28;20424;-73
2022/11/13 01:42:32;;;;;;;22.65;16.10;;;5.10;99.90;;;;;;5043662;28;20082;-73
2022/11/13 01:45:01;;;;;;;24.13;15.77;;;5.00;99.90;;;;;;5063856;28;20037;-73
2022/11/13 01:47:29;;;;;;;24.67;16.70;;;5.00;99.90;;;;;;5041810;28;20041;-73
2022/11/13 01:49:58;;;;;;;22.88;15.40;;;5.00;99.90;;;;;;5066329;28;20098;-73
2022/11/13 01:52:33;;;;;;;23.27;15.75;;;4.90;99.90;;;;;;5057277;28;20399;-73
2022/11/13 01:55:11;;;;;;;22.25;15.75;;;4.90;99.90;;;;;;5059285;28;20516;-73
2022/11/13 01:57:38;;;;;;;25.25;16.13;;;4.90;99.90;;;;;;5042530;28;20041;-73
2022/11/13 02:00:08;;;;;;;21.55;15.43;;;4.80;99.90;;;;;;5032215;28;20097;-73
2022/11/13 02:02:34;;;;;;;26.23;15.80;;;4.80;99.90;;;;;;5057229;28;20041;-73
2022/11/13 02:05:01;;;;;;;23.07;15.83;;;4.80;99.90;;;;;;5028781;28;20089;-73
2022/11/13 02:07:27;;;;;;;22.85;15.68;;;4.80;99.90;;;;;;5062327;28;20044;-73
2022/11/13 02:09:55;;;;;;;24.80;16.20;;;4.80;99.90;;;;;;5046407;28;20036;-73
2022/11/13 02:12:33;;;;;;;23.25;16.00;;;4.80;99.90;;;;;;5045364;28;20466;-73
2022/11/13 02:15:01;;;;;;;22.27;15.40;;;4.80;99.90;;;;;;5058735;28;20131;-73
2022/11/13 02:17:44;;;;;;;24.65;16.33;;;4.90;99.90;;;;;;5066580;28;20047;-73
2022/11/13 02:20:10;;;;;;;20.83;15.73;;;4.90;99.90;;;;;;5049516;28;20040;-73
2022/11/13 02:23:05;;;;;;;23.65;16.38;;;4.90;99.90;;;;;;5066488;28;20048;-73
2022/11/13 02:25:33;;;;;;;26.90;16.80;;;4.90;99.90;;;;;;5058058;28;20384;-73
2022/11/13 02:27:58;;;;;;;24.60;16.98;;;4.90;99.90;;;;;;5061857;28;20105;-73
2022/11/13 02:30:27;;;;;;;25.00;17.90;;;4.90;99.90;;;;;;5020719;28;20037;-73
2022/11/13 02:32:55;;;;;;;26.80;18.33;;;5.00;99.90;;;;;;5054697;28;20500;-73
2022/11/13 02:35:25;;;;;;;25.55;16.98;;;5.10;99.90;;;;;;5044356;28;20499;-73
2022/11/13 02:37:50;;;;;;;26.58;17.90;;;5.10;99.90;;;;;;5049423;28;20052;-73
2022/11/13 02:40:17;;;;;;;24.40;17.20;;;5.10;99.90;;;;;;5044228;28;20048;-73
2022/11/13 02:42:43;;;;;;;26.40;16.52;;;5.10;99.90;;;;;;5041917;28;20381;-73
2022/11/13 02:45:09;;;;;;;23.90;17.53;;;5.20;99.90;;;;;;5058808;28;20040;-73
2022/11/13 02:47:35;;;;;;;23.98;17.67;;;5.20;99.90;;;;;;5033181;28;20121;-73
2022/11/13 02:50:01;;;;;;;23.57;17.00;;;5.20;99.90;;;;;;5042547;28;20078;-73
2022/11/13 02:52:26;;;;;;;23.77;17.10;;;5.20;99.90;;;;;;5041659;28;20044;-73
2022/11/13 02:54:52;;;;;;;22.00;16.60;;;5.20;99.90;;;;;;5043063;28;20033;-73
2022/11/13 02:57:18;;;;;;;29.30;17.73;;;5.20;99.90;;;;;;5061163;28;20320;-73
2022/11/13 02:59:44;;;;;;;23.30;16.63;;;5.20;99.90;;;;;;5041336;28;20508;-73
2022/11/13 03:02:10;;;;;;;25.25;16.40;;;5.20;99.90;;;;;;5047282;28;20059;-73
2022/11/13 03:04:36;;;;;;;21.77;15.83;;;5.20;99.90;;;;;;5049991;28;20236;-73
2022/11/13 03:07:01;;;;;;;24.30;16.13;;;5.20;99.90;;;;;;5062143;28;20052;-73
2022/11/13 03:09:27;;;;;;;24.27;16.50;;;5.10;99.90;;;;;;5047824;28;20317;-73
2022/11/13 03:11:53;;;;;;;27.27;16.27;;;5.10;99.90;;;;;;5025871;28;20041;-73
2022/11/13 03:14:19;;;;;;;22.73;16.07;;;5.10;99.90;;;;;;5026128;28;20040;-73
2022/11/13 03:16:44;;;;;;;22.20;16.47;;;5.10;99.90;;;;;;5057701;28;20123;-73
2022/11/13 03:19:10;;;;;;;22.43;16.10;;;5.10;99.90;;;;;;5042315;28;20133;-73
2022/11/13 03:21:36;;;;;;;22.47;16.33;;;5.10;99.90;;;;;;5065191;28;20044;-73
2022/11/13 03:24:01;;;;;;;23.43;16.27;;;5.10;99.90;;;;;;5026881;28;21316;-73
2022/11/13 03:26:28;;;;;;;23.07;15.97;;;5.10;99.90;;;;;;5061952;28;20045;-73
2022/11/13 03:28:54;;;;;;;22.58;16.15;;;5.10;99.90;;;;;;5041276;28;20044;-73
2022/11/13 03:31:20;;;;;;;24.23;16.83;;;5.10;99.90;;;;;;5048041;28;20036;-73
2022/11/13 03:33:46;;;;;;;26.87;16.70;;;5.10;99.90;;;;;;5043602;28;20594;-73
2022/11/13 03:36:12;;;;;;;23.73;16.23;;;5.10;99.90;;;;;;5064995;28;20673;-73
2022/11/13 03:38:38;;;;;;;24.30;16.30;;;5.20;99.90;;;;;;5026037;28;20060;-73
2022/11/13 03:41:04;;;;;;;25.67;17.25;;;5.20;99.90;;;;;;5063487;28;20135;-73
2022/11/13 03:43:30;;;;;;;25.70;17.27;;;5.20;99.90;;;;;;5059493;28;20123;-73
2022/11/13 03:45:56;;;;;;;27.55;18.05;;;5.30;99.90;;;;;;5060402;28;20456;-73
2022/11/13 03:48:22;;;;;;;21.77;16.27;;;5.30;99.90;;;;;;5035617;28;20141;-73
2022/11/13 03:50:50;;;;;;;24.57;16.97;;;5.30;99.90;;;;;;5034914;28;20489;-73
2022/11/13 03:53:16;;;;;;;24.23;18.33;;;5.40;99.90;;;;;;5047240;28;20033;-73
2022/11/13 03:55:43;;;;;;;26.37;18.07;;;5.40;99.90;;;;;;5047039;28;20044;-73
2022/11/13 03:58:09;;;;;;;24.08;17.40;;;5.40;99.90;;;;;;5064654;28;20291;-73
2022/11/13 04:00:36;;;;;;;22.98;16.48;;;5.50;99.90;;;;;;5047130;28;20036;-73
2022/11/13 04:03:02;;;;;;;27.10;18.70;;;5.50;99.90;;;;;;5034431;28;20044;-73
2022/11/13 04:05:28;;;;;;;24.03;16.87;;;5.50;99.90;;;;;;5024288;28;20048;-73
2022/11/13 04:07:54;;;;;;;25.90;18.20;;;5.60;99.90;;;;;;5047482;28;20423;-73
2022/11/13 04:10:19;;;;;;;29.13;17.53;;;5.50;99.90;;;;;;5027179;28;20056;-73
2022/11/13 04:12:45;;;;;;;22.97;18.07;;;5.60;99.90;;;;;;5060037;28;20040;-73
2022/11/13 04:15:11;;;;;;;28.33;18.07;;;5.60;99.90;;;;;;5055293;28;20044;-73
2022/11/13 04:17:37;;;;;;;25.73;18.47;;;5.60;99.90;;;;;;5058182;28;20147;-73
2022/11/13 04:20:03;;;;;;;25.93;18.30;;;5.60;99.90;;;;;;5041699;28;20094;-73
2022/11/13 04:22:28;;;;;;;27.38;19.02;;;5.60;99.90;;;;;;5041777;28;20072;-73
2022/11/13 04:24:54;;;;;;;28.07;19.10;;;5.60;99.90;;;;;;5021090;28;20049;-73
2022/11/13 04:27:20;;;;;;;26.50;18.73;;;5.60;99.90;;;;;;5025632;28;20476;-73
2022/11/13 04:29:45;;;;;;;29.03;18.63;;;5.60;99.90;;;;;;5045099;28;20571;-73
2022/11/13 04:32:11;;;;;;;27.80;18.27;;;5.60;99.90;;;;;;5041277;28;20044;-73
2022/11/13 04:34:37;;;;;;;26.90;18.93;;;5.60;99.90;;;;;;5059909;28;20331;-73
2022/11/13 04:37:03;;;;;;;25.87;18.60;;;5.60;99.90;;;;;;5039847;28;20047;-73
2022/11/13 04:39:29;;;;;;;27.60;19.53;;;5.60;99.90;;;;;;5064180;28;20048;-73
2022/11/13 04:44:39;;;;;;;29.15;20.23;;;5.60;99.90;;;;;;5064213;28;20045;-73
2022/11/13 04:47:05;;;;;;;26.70;18.47;;;5.60;99.90;;;;;;5024010;28;20435;-73
2022/11/13 04:49:30;;;;;;;29.53;19.60;;;5.60;99.90;;;;;;5040305;28;20032;-73
2022/11/13 04:51:56;;;;;;;27.67;19.10;;;5.60;99.90;;;;;;5023667;28;20136;-73
2022/11/13 04:54:22;;;;;;;28.17;19.80;;;5.60;99.90;;;;;;5045080;28;20395;-73
2022/11/13 04:56:47;;;;;;;24.87;18.57;;;5.60;99.90;;;;;;5047410;28;20127;-73
2022/11/13 04:59:13;;;;;;;27.03;17.90;;;5.50;99.90;;;;;;5040297;28;20094;-73
2022/11/13 05:01:39;;;;;;;24.13;18.30;;;5.50;99.90;;;;;;5043545;28;20400;-73
2022/11/13 05:04:05;;;;;;;30.57;19.10;;;5.50;99.90;;;;;;5023907;28;20041;-73
2022/11/13 05:06:31;;;;;;;27.40;18.20;;;5.50;99.90;;;;;;5038695;28;20076;-73
2022/11/13 05:08:57;;;;;;;27.45;19.27;;;5.50;99.90;;;;;;5046376;28;20304;-73
2022/11/13 05:11:22;;;;;;;30.53;20.63;;;5.60;99.90;;;;;;5029497;28;20393;-73
2022/11/13 05:13:48;;;;;;;28.53;18.70;;;5.50;99.90;;;;;;5057531;28;20269;-73
2022/11/13 05:16:14;;;;;;;28.17;19.80;;;5.50;99.90;;;;;;5058684;28;20058;-73
2022/11/13 05:18:40;;;;;;;28.50;19.00;;;5.50;99.90;;;;;;5057233;28;20045;-73
2022/11/13 05:21:07;;;;;;;27.93;18.63;;;5.50;99.90;;;;;;5062761;28;20090;-73
2022/11/13 05:23:33;;;;;;;31.52;19.88;;;5.50;99.90;;;;;;5061607;28;20045;-73
2022/11/13 05:26:08;;;;;;;28.02;20.00;;;5.50;99.90;;;;;;5057760;28;20117;-73
2022/11/13 05:28:34;;;;;;;26.38;19.30;;;5.50;99.90;;;;;;5041201;28;20398;-73
2022/11/13 05:31:04;;;;;;;28.77;19.17;;;5.50;99.90;;;;;;5055854;28;20147;-73
2022/11/13 05:33:30;;;;;;;28.40;19.63;;;5.50;99.90;;;;;;5036360;28;20041;-73
2022/11/13 05:36:07;;;;;;;28.00;18.87;;;5.50;99.90;;;;;;5060984;28;20040;-73
2022/11/13 05:38:34;;;;;;;27.17;18.40;;;5.50;99.90;;;;;;5053969;28;20088;-73
2022/11/13 05:41:06;;;;;;;25.45;17.50;;;5.40;99.90;;;;;;5039567;28;20048;-73
2022/11/13 05:43:34;;;;;;;25.40;18.33;;;5.40;99.90;;;;;;5063290;28;20047;-73
2022/11/13 05:46:11;;;;;;;24.77;18.58;;;5.40;99.90;;;;;;5058485;28;20409;-73
2022/11/13 05:48:37;;;;;;;24.50;18.42;;;5.30;99.90;;;;;;5039406;28;20036;-73
2022/11/13 05:51:06;;;;;;;25.92;18.27;;;5.30;99.90;;;;;;5033580;28;20405;-73
2022/11/13 05:53:32;;;;;;;27.30;19.27;;;5.30;99.90;;;;;;5056240;28;20055;-73
2022/11/13 05:56:20;;;;;;;27.25;18.75;;;5.20;99.90;;;;;;5037028;28;20043;-73
2022/11/13 05:58:47;;;;;;;26.35;18.33;;;5.20;99.90;;;;;;5033871;28;20075;-73
2022/11/13 06:01:37;;;;;;;26.63;17.70;;;5.20;99.90;;;;;;5038274;28;20048;-73
2022/11/13 06:04:04;;;;;;;27.08;18.05;;;5.10;99.90;;;;;;5036292;28;20053;-73
2022/11/13 06:06:30;;;;;;;26.70;18.60;;;5.10;99.90;;;;;;5046337;28;20063;-73
2022/11/13 06:08:58;;;;;;;27.23;19.25;;;5.10;99.90;;;;;;5038626;28;20040;-74
2022/11/13 06:11:26;;;;;;;26.70;18.52;;;5.00;99.90;;;;;;5049465;28;20049;-73
2022/11/13 06:13:54;;;;;;;29.00;18.98;;;5.00;99.90;;;;;;5046573;28;20614;-73
2022/11/13 06:16:29;;;;;;;26.98;18.05;;;5.00;99.90;;;;;;5045874;28;20044;-73
2022/11/13 06:19:00;;;;;;;26.80;18.85;;;5.00;99.90;;;;;;5053976;28;20048;-73
2022/11/13 06:21:29;;;;;;;27.48;19.92;;;4.90;99.90;;;;;;5043491;28;20496;-73
2022/11/13 06:24:00;;;;;;;24.42;17.90;;;4.90;99.90;;;;;;5044074;28;20044;-73
2022/11/13 06:26:31;;;;;;;28.90;18.92;;;4.90;99.90;;;;;;5041999;28;20040;-73
2022/11/13 06:28:59;;;;;;;25.67;18.33;;;4.90;99.90;;;;;;5049170;28;20044;-74
2022/11/13 06:31:27;;;;;;;28.75;19.23;;;4.90;99.90;;;;;;5045013;28;20047;-73
2022/11/13 06:33:53;;;;;;;26.27;18.83;;;4.90;99.90;;;;;;5059753;28;20672;-73
2022/11/13 06:36:25;;;;;;;29.02;18.92;;;4.90;99.90;;;;;;5059840;28;20029;-73
2022/11/13 06:38:51;;;;;;;26.25;19.33;;;5.00;99.90;;;;;;5046093;28;20056;-73
2022/11/13 06:41:19;;;;;;;30.00;19.53;;;5.00;99.90;;;;;;5037409;28;20080;-73
2022/11/13 06:43:46;;;;;;;27.60;19.35;;;5.00;99.90;;;;;;5060977;28;20048;-73
2022/11/13 06:46:20;;;;;;;29.63;19.80;;;5.00;99.90;;;;;;5054090;28;20087;-73
2022/11/13 06:48:46;;;;;;;28.48;19.65;;;5.00;99.90;;;;;;5063490;28;20040;-73
2022/11/13 06:51:17;;;;;;;26.50;19.25;;;5.10;99.90;;;;;;5042333;28;20041;-73
2022/11/13 06:53:44;;;;;;;30.80;19.10;;;5.10;99.90;;;;;;5064886;28;20040;-73
2022/11/13 06:56:10;;;;;;;25.90;19.73;;;5.10;99.90;;;;;;5054836;28;20477;-73
2022/11/13 06:58:36;;;;;;;29.33;19.17;;;5.10;99.90;;;;;;5042299;28;20492;-73
2022/11/13 07:01:10;;;;;;;28.40;18.83;;;5.10;99.90;;;;;;5040122;28;20047;-73
2022/11/13 07:03:36;;;;;;;31.30;20.02;;;5.10;99.90;;;;;;5059502;28;20128;-73
2022/11/13 07:06:08;;;;;;;28.70;18.23;;;5.10;99.90;;;;;;5044743;28;20182;-73
2022/11/13 07:08:34;;;;;;;26.48;19.40;;;5.10;99.90;;;;;;5048585;28;20044;-73
2022/11/13 07:11:00;;;;;;;28.02;19.25;;;5.10;99.90;;;;;;5022746;28;20041;-73
2022/11/13 07:13:27;;;;;;;26.73;18.48;;;5.10;99.90;;;;;;5057963;28;20174;-73
2022/11/13 07:15:53;;;;;;;27.20;19.27;;;5.00;99.90;;;;;;5043255;28;20075;-73
2022/11/13 07:18:19;;;;;;;28.55;18.58;;;5.10;99.90;;;;;;5056767;28;20100;-73
2022/11/13 07:20:44;;;;;;;28.73;19.43;;;5.00;99.90;;;;;;5048332;28;20056;-73
2022/11/13 07:23:10;;;;;;;30.00;19.53;;;5.00;99.90;;;;;;5047001;28;20041;-73
2022/11/13 07:25:36;;;;;;;29.30;19.33;;;5.00;99.90;;;;;;5049349;28;20131;-73
2022/11/13 07:28:02;;;;;;;27.30;18.53;;;5.10;99.90;;;;;;5040197;28;20045;-73
2022/11/13 07:30:28;;;;;;;26.70;18.67;;;5.10;99.90;;;;;;5057670;28;20520;-73
2022/11/13 07:32:53;;;;;;;28.47;18.63;;;5.20;99.90;;;;;;5061818;28;20120;-73
2022/11/13 07:35:19;;;;;;;26.87;18.73;;;5.20;99.90;;;;;;5037981;28;20362;-73
2022/11/13 07:37:45;;;;;;;25.53;17.87;;;5.20;99.90;;;;;;5061278;28;20055;-74
2022/11/13 07:40:11;;;;;;;25.87;19.17;;;5.20;99.90;;;;;;5042582;28;20098;-73
2022/11/13 07:42:38;;;;;;;26.52;17.77;;;5.30;99.90;;;;;;5061576;28;20055;-73
2022/11/13 07:45:05;;;;;;;30.95;18.33;;;5.30;99.90;;;;;;5063617;28;20045;-73
2022/11/13 07:47:31;;;;;;;28.27;18.15;;;5.40;99.90;;;;;;5058077;28;20039;-73
2022/11/13 07:49:56;;;;;;;23.00;17.37;;;5.40;99.90;;;;;;5041586;28;20484;-73
2022/11/13 07:52:22;;;;;;;25.83;18.00;;;5.40;99.90;;;;;;5058744;28;20048;-73
2022/11/13 07:54:48;;;;;;;24.93;17.63;;;5.40;99.90;;;;;;5042358;28;20539;-73
2022/11/13 07:57:14;;;;;;;24.73;16.80;;;5.40;99.90;;;;;;5046873;28;20091;-73
2022/11/13 07:59:39;;;;;;;23.70;17.63;;;5.40;99.90;;;;;;5047954;28;20040;-73
2022/11/13 08:02:05;;;;;;;27.37;18.73;;;5.50;99.90;;;;;;5036894;28;20048;-73
2022/11/13 08:04:31;;;;;;;28.63;18.85;;;5.50;99.90;;;;;;5058729;28;20056;-73
2022/11/13 08:06:57;;;;;;;27.80;18.63;;;5.60;99.90;;;;;;5040860;28;20044;-74
2022/11/13 08:09:23;;;;;;;25.43;17.67;;;5.70;99.90;;;;;;5026698;28;20040;-74
2022/11/13 08:11:48;;;;;;;27.43;18.70;;;5.80;99.90;;;;;;5045143;28;20060;-74
2022/11/13 08:14:14;;;;;;;28.93;18.53;;;5.80;99.90;;;;;;5046472;28;20033;-74
2022/11/13 08:16:40;;;;;;;27.53;18.93;;;5.90;99.90;;;;;;5059714;28;20033;-73
2022/11/13 08:19:06;;;;;;;28.70;18.03;;;6.00;99.90;;;;;;5047944;28;20044;-75
2022/11/13 08:21:31;;;;;;;28.20;17.97;;;6.10;99.90;;;;;;5064274;28;20044;-74
2022/11/13 08:23:57;;;;;;;26.37;17.50;;;6.20;99.90;;;;;;5059994;28;20036;-73
2022/11/13 08:26:23;;;;;;;22.77;16.43;;;6.30;99.90;;;;;;5043985;28;20040;-74
2022/11/13 08:28:48;;;;;;;23.47;16.03;;;6.40;99.90;;;;;;5041311;28;20041;-75
2022/11/13 08:31:15;;;;;;;23.63;17.50;;;6.40;99.90;;;;;;5043888;28;20048;-74
2022/11/13 08:33:42;;;;;;;21.38;16.35;;;6.50;99.90;;;;;;5042458;28;20504;-74
2022/11/13 08:36:09;;;;;;;23.17;17.33;;;6.60;99.90;;;;;;5058507;28;20048;-74
2022/11/13 08:38:35;;;;;;;24.45;16.67;;;6.60;99.90;;;;;;5031122;28;20102;-74
2022/11/13 08:41:02;;;;;;;24.20;17.50;;;6.70;99.90;;;;;;5062738;28;20455;-74
2022/11/13 08:43:28;;;;;;;24.17;16.75;;;6.70;99.90;;;;;;5064791;28;20051;-75
2022/11/13 08:45:54;;;;;;;21.53;16.33;;;6.70;99.90;;;;;;5077458;28;20493;-75
2022/11/13 08:48:21;;;;;;;21.95;16.50;;;6.70;99.90;;;;;;5061932;28;20079;-74
2022/11/13 08:50:53;;;;;;;20.83;15.50;;;6.80;99.90;;;;;;5053857;28;20101;-74
2022/11/13 08:53:19;;;;;;;22.42;16.10;;;6.80;99.90;;;;;;5061054;28;20113;-75
2022/11/13 08:55:45;;;;;;;20.90;15.52;;;6.90;99.90;;;;;;5063645;28;20036;-75
2022/11/13 08:58:11;;;;;;;21.70;15.73;;;7.00;99.90;;;;;;5031157;28;20032;-75
2022/11/13 09:00:37;;;;;;;22.67;15.87;;;7.10;99.90;;;;;;5037827;28;20036;-75
2022/11/13 09:03:03;;;;;;;20.33;15.68;;;7.20;99.90;;;;;;5042950;28;20476;-74
2022/11/13 09:05:29;;;;;;;20.17;14.80;;;7.30;99.90;;;;;;5048490;28;20515;-74
2022/11/13 09:07:57;;;;;;;18.70;14.70;;;7.40;99.90;;;;;;5059305;28;20044;-75
2022/11/13 09:10:23;;;;;;;17.98;14.23;;;7.50;99.90;;;;;;5044097;28;20135;-74
2022/11/13 09:12:54;;;;;;;21.60;13.95;;;7.60;99.90;;;;;;5047345;28;20043;-74
2022/11/13 09:15:19;;;;;;;23.05;13.68;;;7.60;99.90;;;;;;5026592;28;20033;-74
2022/11/13 09:17:45;;;;;;;19.57;14.30;;;7.70;99.90;;;;;;5064337;28;20408;-74
2022/11/13 09:20:14;;;;;;;19.38;13.75;;;7.80;99.90;;;;;;5053679;28;20175;-74
2022/11/13 09:22:40;;;;;;;19.42;14.02;;;7.90;99.90;;;;;;5064052;28;20456;-74
2022/11/13 09:25:06;;;;;;;17.70;14.43;;;8.00;99.90;;;;;;5020154;28;20036;-75
2022/11/13 09:27:32;;;;;;;19.08;14.70;;;8.20;99.90;;;;;;5031079;28;20048;-75
2022/11/13 09:29:57;;;;;;;17.77;14.23;;;8.30;99.90;;;;;;5041193;28;20044;-75
2022/11/13 09:32:23;;;;;;;17.27;13.83;;;8.40;99.90;;;;;;5021968;28;20048;-74
2022/11/13 09:34:49;;;;;;;16.33;13.35;;;8.60;99.90;;;;;;5056186;28;20099;-74
2022/11/13 09:37:15;;;;;;;16.63;12.87;;;8.70;99.90;;;;;;5042817;28;20064;-74
2022/11/13 09:39:41;;;;;;;15.90;12.50;;;8.80;99.90;;;;;;5030660;28;20173;-74
2022/11/13 09:42:19;;;;;;;16.67;12.40;;;8.90;99.90;;;;;;5055259;28;20681;-75
2022/11/13 09:44:58;;;;;;;15.50;11.50;;;9.10;99.90;;;;;;5060023;28;20075;-75
2022/11/13 09:47:29;;;;;;;15.93;11.88;;;9.20;99.90;;;;;;5041753;28;20714;-74
2022/11/13 09:50:00;;;;;;;14.80;11.45;;;9.30;99.90;;;;;;5035123;28;20072;-74
2022/11/13 09:52:38;;;;;;;13.68;11.38;;;9.30;99.90;;;;;;5034830;28;20049;-74
2022/11/13 09:55:05;;;;;;;17.07;11.33;;;9.30;99.90;;;;;;5054346;28;20442;-74
2022/11/13 09:57:56;;;;;;;12.33;10.60;;;9.30;99.90;;;;;;5032194;28;20287;-74
2022/11/13 10:00:22;;;;;;;14.93;11.10;;;9.40;99.90;;;;;;5034735;28;20341;-74
2022/11/13 10:03:00;;;;;;;14.20;10.83;;;9.40;99.90;;;;;;5055976;28;20278;-74
2022/11/13 10:05:44;;;;;;;14.77;10.70;;;9.40;99.90;;;;;;5046289;28;20291;-72
2022/11/13 10:08:23;;;;;;;18.00;11.20;;;9.50;99.90;;;;;;5047500;28;20287;-74
2022/11/13 10:11:03;;;;;;;14.43;10.67;;;9.60;99.90;;;;;;5055120;28;20291;-74
2022/11/13 10:13:38;;;;;;;13.07;10.83;;;9.60;99.90;;;;;;5054128;28;20290;-74
2022/11/13 10:16:28;;;;;;;15.00;10.60;;;9.70;99.90;;;;;;5055110;28;20279;-74
2022/11/13 10:18:59;;;;;;;12.27;10.33;;;9.70;99.90;;;;;;5058200;28;20052;-74
2022/11/13 10:21:36;;;;;;;12.50;10.00;;;9.80;99.90;;;;;;5039937;28;20326;-74
2022/11/13 10:24:09;;;;;;;12.47;9.80;;;10.00;99.90;;;;;;5039412;28;20318;-74
2022/11/13 10:26:35;;;;;;;14.60;10.33;;;10.10;99.90;;;;;;5055812;28;20288;-73
2022/11/13 10:29:13;;;;;;;12.03;10.37;;;10.20;99.90;;;;;;5051453;28;20360;-73
2022/11/13 10:31:51;;;;;;;17.63;10.07;;;10.30;99.90;;;;;;5049246;28;20132;-74
2022/11/13 10:34:17;;;;;;;12.53;9.93;;;10.50;99.90;;;;;;5031314;28;20283;-75
2022/11/13 10:37:08;;;;;;;14.03;10.33;;;10.60;99.90;;;;;;5014464;28;21008;-74
2022/11/13 10:39:43;;;;;;;13.23;9.67;;;10.70;99.90;;;;;;5046967;28;20392;-74
2022/11/13 10:42:26;;;;;;;12.77;8.77;;;10.90;99.90;;;;;;5048104;28;20310;-74
2022/11/13 10:44:58;;;;;;;11.27;8.53;;;11.00;99.90;;;;;;5055136;28;20291;-74
2022/11/13 10:47:31;;;;;;;10.77;8.70;;;11.10;99.90;;;;;;5062010;28;20832;-74
2022/11/13 10:50:08;;;;;;;14.50;9.20;;;11.20;99.90;;;;;;5047655;28;20330;-74
2022/11/13 10:52:43;;;;;;;10.80;8.13;;;11.30;99.90;;;;;;5055520;28;20310;-74
2022/11/13 10:55:38;;;;;;;9.07;7.50;;;11.40;99.90;;;;;;5060579;28;20388;-74
2022/11/13 10:58:16;;;;;;;9.48;8.07;;;11.50;99.90;;;;;;5061778;28;20040;-74
2022/11/13 11:00:46;;;;;;;10.20;7.83;;;11.60;99.90;;;;;;5055100;28;20407;-74
2022/11/13 11:03:23;;;;;;;9.80;7.20;;;11.70;99.90;;;;;;5054352;28;20668;-74
2022/11/13 11:05:55;;;;;;;9.77;7.93;;;11.70;99.90;;;;;;5046761;28;20346;-74
2022/11/13 11:08:27;;;;;;;10.77;7.67;;;11.80;99.90;;;;;;5062777;28;20346;-74
2022/11/13 11:13:40;;;;;;;9.70;8.23;;;12.00;99.90;;;;;;5054473;28;20306;-74
2022/11/13 11:16:10;;;;;;;11.23;8.53;;;12.10;99.90;;;;;;5033699;28;20318;-74
2022/11/13 11:18:42;;;;;;;10.43;8.47;;;12.10;99.90;;;;;;5028387;28;20234;-74
2022/11/13 11:21:14;;;;;;;8.87;7.43;;;12.10;99.90;;;;;;5056518;28;20340;-73
2022/11/13 11:23:53;;;;;;;10.20;7.47;;;12.20;99.90;;;;;;5064044;28;20287;-73
2022/11/13 11:26:30;;;;;;;10.50;8.10;;;12.30;99.90;;;;;;5065732;28;20655;-73
2022/11/13 11:29:20;;;;;;;8.53;7.10;;;12.30;99.90;;;;;;5062629;28;20321;-73
2022/11/13 11:31:54;;;;;;;10.20;7.07;;;12.40;99.90;;;;;;5057058;28;20322;-73
2022/11/13 11:34:42;;;;;;;7.80;7.00;;;12.40;99.90;;;;;;5051328;28;20368;-73
2022/11/13 11:37:15;;;;;;;8.50;7.30;;;12.40;99.90;;;;;;5060638;28;20340;-73
2022/11/13 11:39:53;;;;;;;9.20;7.40;;;12.40;99.90;;;;;;5049355;28;20396;-75
2022/11/13 11:42:30;;;;;;;7.73;6.50;;;12.30;99.90;;;;;;5058020;28;20374;-74
2022/11/13 11:45:22;;;;;;;9.63;7.50;;;12.20;99.90;;;;;;5051760;28;20299;-74
2022/11/13 11:47:48;;;;;;;9.23;7.10;;;12.20;99.90;;;;;;5058142;28;20898;-74
2022/11/13 11:50:16;;;;;;;8.40;6.63;;;12.10;99.90;;;;;;5049642;28;20342;-74
2022/11/13 11:52:45;;;;;;;9.97;7.07;;;12.10;99.90;;;;;;5031363;28;20783;-74
2022/11/13 11:55:53;;;;;;;9.70;7.47;;;12.10;99.90;;;;;;5040786;28;20295;-74
2022/11/13 11:58:41;;;;;;;8.80;7.40;;;12.20;99.90;;;;;;5031501;28;20279;-74
2022/11/13 12:01:43;;;;;;;9.60;7.70;;;12.40;99.90;;;;;;5053850;28;20718;-74
2022/11/13 12:04:20;;;;;;;8.97;6.97;;;12.50;99.90;;;;;;5047589;28;20278;-73
2022/11/13 12:07:06;;;;;;;9.83;7.63;;;12.70;99.90;;;;;;5046522;28;20287;-74
2022/11/13 12:10:05;;;;;;;9.03;6.80;;;12.80;99.90;;;;;;5050672;28;20798;-74
2022/11/13 12:13:02;;;;;;;9.23;7.07;;;12.90;99.90;;;;;;5072893;28;20611;-73
2022/11/13 12:15:43;;;;;;;7.83;6.87;;;13.00;99.90;;;;;;5055794;28;20311;-74
2022/11/13 12:18:14;;;;;;;7.67;6.03;;;13.10;99.90;;;;;;5050978;28;20340;-74
2022/11/13 12:20:57;;;;;;;7.50;6.03;;;13.20;99.90;;;;;;5055020;28;20984;-74
2022/11/13 12:23:42;;;;;;;11.80;6.70;;;13.20;99.90;;;;;;5036504;28;20306;-74
2022/11/13 12:26:25;;;;;;;9.00;5.80;;;13.30;99.90;;;;;;5040879;28;20916;-74
2022/11/13 12:29:05;;;;;;;7.23;6.27;;;13.40;99.90;;;;;;5050111;28;20318;-74
2022/11/13 12:32:06;;;;;;;6.97;5.90;;;13.40;99.90;;;;;;5049114;28;20779;-74
2022/11/13 12:34:49;;;;;;;7.60;5.60;;;13.40;99.90;;;;;;5054185;28;20782;-74
2022/11/13 12:37:52;;;;;;;7.30;5.57;;;13.40;99.90;;;;;;5042964;28;20666;-74
2022/11/13 12:40:35;;;;;;;7.27;6.00;;;13.40;99.90;;;;;;5063411;28;20388;-74
2022/11/13 12:43:24;;;;;;;7.50;5.50;;;13.40;99.90;;;;;;5054452;28;20291;-74
2022/11/13 12:45:53;;;;;;;8.30;5.73;;;13.30;99.90;;;;;;5057999;28;20384;-74
2022/11/13 12:48:21;;;;;;;9.37;5.43;;;13.10;99.90;;;;;;5036328;28;20295;-74
2022/11/13 12:51:02;;;;;;;8.53;6.10;;;13.10;99.90;;;;;;5035969;28;20399;-74
2022/11/13 12:53:41;;;;;;;6.80;5.80;;;13.20;99.90;;;;;;5060120;28;20374;-74
2022/11/13 12:56:28;;;;;;;8.27;6.40;;;13.20;99.90;;;;;;5044691;28;20783;-74
2022/11/13 12:58:59;;;;;;;8.63;6.53;;;13.20;99.90;;;;;;5062187;28;20290;-74